General Carneiro, Brazil
Current Conditions -  °F | °C
As of 4:00 AM on Sunday 23 Nov 2014 (Local Time) from SBCY Reporting Station
Broken Clouds Broken Clouds  
Wind Chill: 73°   Ceiling: 400
Heat Index: 73°   Visibility: 6mi
Dew Point: 70°   Wind: 5mph
Humidity: 88%   Direction: 300°WNW
Pressure: 29.83"   Gusts: NA
Location:  15.71°S, 52.76°W
Report Text: SBCY 230700Z 30004KT 9999 BKN004 BKN100 23/21 Q1010
Loading
Personal Weather Stations






























Interactive Weather Map New forecast layout! Learn more

10-Day Weather Forecast

Advertisements
Track Severe Weather on mobile